sensor_id;sensor_type;location;lat;lon;timestamp;temperature;humidity
14277;DHT22;7222;57.346;12.150;2023-07-24T00:01:32;15.70;99.90
14277;DHT22;7222;57.346;12.150;2023-07-24T00:03:59;15.70;99.90
14277;DHT22;7222;57.346;12.150;2023-07-24T00:06:26;15.70;99.90
14277;DHT22;7222;57.346;12.150;2023-07-24T00:08:53;15.70;99.90
14277;DHT22;7222;57.346;12.150;2023-07-24T00:11:22;15.70;99.90
14277;DHT22;7222;57.346;12.150;2023-07-24T00:13:49;15.70;99.90
14277;DHT22;7222;57.346;12.150;2023-07-24T00:16:16;15.70;99.90
14277;DHT22;7222;57.346;12.150;2023-07-24T00:18:43;15.70;99.90
14277;DHT22;7222;57.346;12.150;2023-07-24T00:21:10;15.70;99.90
14277;DHT22;7222;57.346;12.150;2023-07-24T00:23:39;15.70;99.90
14277;DHT22;7222;57.346;12.150;2023-07-24T00:26:05;15.70;99.90
14277;DHT22;7222;57.346;12.150;2023-07-24T00:28:34;15.80;99.90
14277;DHT22;7222;57.346;12.150;2023-07-24T00:31:01;15.70;99.90
14277;DHT22;7222;57.346;12.150;2023-07-24T00:33:29;15.70;99.90
14277;DHT22;7222;57.346;12.150;2023-07-24T00:36:10;15.70;99.90
14277;DHT22;7222;57.346;12.150;2023-07-24T00:38:37;15.60;99.90
14277;DHT22;7222;57.346;12.150;2023-07-24T00:41:04;15.70;99.90
14277;DHT22;7222;57.346;12.150;2023-07-24T00:43:31;15.60;99.90
14277;DHT22;7222;57.346;12.150;2023-07-24T00:45:59;15.70;99.90
14277;DHT22;7222;57.346;12.150;2023-07-24T00:48:27;15.70;99.90
14277;DHT22;7222;57.346;12.150;2023-07-24T00:50:54;15.70;99.90
14277;DHT22;7222;57.346;12.150;2023-07-24T00:53:22;15.60;99.90
14277;DHT22;7222;57.346;12.150;2023-07-24T00:55:49;15.70;99.90
14277;DHT22;7222;57.346;12.150;2023-07-24T00:58:17;15.60;99.90
14277;DHT22;7222;57.346;12.150;2023-07-24T01:00:45;15.70;99.90
14277;DHT22;7222;57.346;12.150;2023-07-24T01:03:14;15.50;99.90
14277;DHT22;7222;57.346;12.150;2023-07-24T01:05:41;15.70;99.90
14277;DHT22;7222;57.346;12.150;2023-07-24T01:08:11;15.90;99.90
14277;DHT22;7222;57.346;12.150;2023-07-24T01:10:38;15.80;99.90
14277;DHT22;7222;57.346;12.150;2023-07-24T01:13:09;15.70;99.90
14277;DHT22;7222;57.346;12.150;2023-07-24T01:15:45;15.70;99.90
14277;DHT22;7222;57.346;12.150;2023-07-24T01:18:17;15.60;99.90
14277;DHT22;7222;57.346;12.150;2023-07-24T01:20:48;15.70;99.90
14277;DHT22;7222;57.346;12.150;2023-07-24T01:23:26;15.80;99.90
14277;DHT22;7222;57.346;12.150;2023-07-24T01:25:58;15.70;99.90
14277;DHT22;7222;57.346;12.150;2023-07-24T01:28:25;15.70;99.90
14277;DHT22;7222;57.346;12.150;2023-07-24T01:30:53;15.80;99.90
14277;DHT22;7222;57.346;12.150;2023-07-24T01:33:21;15.80;99.90
14277;DHT22;7222;57.346;12.150;2023-07-24T01:35:50;15.60;99.90
14277;DHT22;7222;57.346;12.150;2023-07-24T01:38:19;15.90;99.90
14277;DHT22;7222;57.346;12.150;2023-07-24T01:40:46;15.80;99.90
14277;DHT22;7222;57.346;12.150;2023-07-24T01:43:15;15.70;99.90
14277;DHT22;7222;57.346;12.150;2023-07-24T01:45:42;16.00;99.90
14277;DHT22;7222;57.346;12.150;2023-07-24T01:48:10;15.90;99.90
14277;DHT22;7222;57.346;12.150;2023-07-24T01:50:37;16.10;99.90
14277;DHT22;7222;57.346;12.150;2023-07-24T01:53:04;16.30;99.90
14277;DHT22;7222;57.346;12.150;2023-07-24T01:55:31;16.30;99.90
14277;DHT22;7222;57.346;12.150;2023-07-24T01:57:58;16.70;99.90
14277;DHT22;7222;57.346;12.150;2023-07-24T02:00:26;17.00;99.90
14277;DHT22;7222;57.346;12.150;2023-07-24T02:02:53;17.20;99.90
14277;DHT22;7222;57.346;12.150;2023-07-24T02:05:21;17.30;99.90
14277;DHT22;7222;57.346;12.150;2023-07-24T02:07:48;17.20;99.90
14277;DHT22;7222;57.346;12.150;2023-07-24T02:10:16;17.20;99.90
14277;DHT22;7222;57.346;12.150;2023-07-24T02:12:43;17.20;99.90
14277;DHT22;7222;57.346;12.150;2023-07-24T02:15:10;17.30;99.90
14277;DHT22;7222;57.346;12.150;2023-07-24T02:17:38;17.30;99.90
14277;DHT22;7222;57.346;12.150;2023-07-24T02:20:06;17.20;99.90
14277;DHT22;7222;57.346;12.150;2023-07-24T02:22:34;17.20;99.90
14277;DHT22;7222;57.346;12.150;2023-07-24T02:25:01;17.20;99.90
14277;DHT22;7222;57.346;12.150;2023-07-24T02:27:30;17.20;99.90
14277;DHT22;7222;57.346;12.150;2023-07-24T02:30:00;17.30;99.90
14277;DHT22;7222;57.346;12.150;2023-07-24T02:32:27;17.20;99.90
14277;DHT22;7222;57.346;12.150;2023-07-24T02:34:56;17.30;99.90
14277;DHT22;7222;57.346;12.150;2023-07-24T02:37:23;17.30;99.90
14277;DHT22;7222;57.346;12.150;2023-07-24T02:39:51;17.30;99.90
14277;DHT22;7222;57.346;12.150;2023-07-24T02:42:19;17.30;99.90
14277;DHT22;7222;57.346;12.150;2023-07-24T02:44:46;17.30;99.90
14277;DHT22;7222;57.346;12.150;2023-07-24T02:47:13;17.30;99.90
14277;DHT22;7222;57.346;12.150;2023-07-24T02:49:40;17.30;99.90
14277;DHT22;7222;57.346;12.150;2023-07-24T02:52:08;17.30;99.90
14277;DHT22;7222;57.346;12.150;2023-07-24T02:54:36;17.30;99.90
14277;DHT22;7222;57.346;12.150;2023-07-24T02:57:03;17.30;99.90
14277;DHT22;7222;57.346;12.150;2023-07-24T02:59:31;17.30;99.90
14277;DHT22;7222;57.346;12.150;2023-07-24T03:01:58;17.30;99.90
14277;DHT22;7222;57.346;12.150;2023-07-24T03:04:25;17.30;99.90
14277;DHT22;7222;57.346;12.150;2023-07-24T03:06:53;17.30;99.90
14277;DHT22;7222;57.346;12.150;2023-07-24T03:09:21;17.30;99.90
14277;DHT22;7222;57.346;12.150;2023-07-24T03:11:49;17.30;99.90
14277;DHT22;7222;57.346;12.150;2023-07-24T03:14:16;17.30;99.90
14277;DHT22;7222;57.346;12.150;2023-07-24T03:16:43;17.30;99.90
14277;DHT22;7222;57.346;12.150;2023-07-24T03:22:11;17.20;99.90
14277;DHT22;7222;57.346;12.150;2023-07-24T03:24:40;17.30;99.90
14277;DHT22;7222;57.346;12.150;2023-07-24T03:27:08;17.30;99.90
14277;DHT22;7222;57.346;12.150;2023-07-24T03:29:35;17.30;99.90
14277;DHT22;7222;57.346;12.150;2023-07-24T03:32:03;17.30;99.90
14277;DHT22;7222;57.346;12.150;2023-07-24T03:34:30;17.40;99.90
14277;DHT22;7222;57.346;12.150;2023-07-24T03:36:57;17.40;99.90
14277;DHT22;7222;57.346;12.150;2023-07-24T03:39:25;17.30;99.90
14277;DHT22;7222;57.346;12.150;2023-07-24T03:41:53;17.30;99.90
14277;DHT22;7222;57.346;12.150;2023-07-24T03:44:20;17.40;99.90
14277;DHT22;7222;57.346;12.150;2023-07-24T03:46:47;17.40;99.90
14277;DHT22;7222;57.346;12.150;2023-07-24T03:49:14;17.40;99.90
14277;DHT22;7222;57.346;12.150;2023-07-24T03:51:41;17.40;99.90
14277;DHT22;7222;57.346;12.150;2023-07-24T03:54:08;17.40;99.90
14277;DHT22;7222;57.346;12.150;2023-07-24T03:56:36;17.40;99.90
14277;DHT22;7222;57.346;12.150;2023-07-24T03:59:05;17.40;99.90
14277;DHT22;7222;57.346;12.150;2023-07-24T04:01:33;17.40;99.90
14277;DHT22;7222;57.346;12.150;2023-07-24T04:04:00;17.40;99.90
14277;DHT22;7222;57.346;12.150;2023-07-24T04:06:27;17.40;99.90
14277;DHT22;7222;57.346;12.150;2023-07-24T04:08:54;17.40;99.90
14277;DHT22;7222;57.346;12.150;2023-07-24T04:11:21;17.40;99.90
14277;DHT22;7222;57.346;12.150;2023-07-24T04:13:50;17.40;99.90
14277;DHT22;7222;57.346;12.150;2023-07-24T04:16:18;17.50;99.90
14277;DHT22;7222;57.346;12.150;2023-07-24T04:18:46;17.40;99.90
14277;DHT22;7222;57.346;12.150;2023-07-24T04:21:13;17.50;99.90
14277;DHT22;7222;57.346;12.150;2023-07-24T04:23:40;17.40;99.90
14277;DHT22;7222;57.346;12.150;2023-07-24T04:26:07;17.40;99.90
14277;DHT22;7222;57.346;12.150;2023-07-24T04:28:34;17.40;99.90
14277;DHT22;7222;57.346;12.150;2023-07-24T04:31:01;17.40;99.90
14277;DHT22;7222;57.346;12.150;2023-07-24T04:33:29;17.40;99.90
14277;DHT22;7222;57.346;12.150;2023-07-24T04:35:57;17.40;99.90
14277;DHT22;7222;57.346;12.150;2023-07-24T04:38:24;17.40;99.90
14277;DHT22;7222;57.346;12.150;2023-07-24T04:40:51;17.40;99.90
14277;DHT22;7222;57.346;12.150;2023-07-24T04:43:18;17.40;99.90
14277;DHT22;7222;57.346;12.150;2023-07-24T04:45:45;17.50;99.90
14277;DHT22;7222;57.346;12.150;2023-07-24T04:48:13;17.50;99.90
14277;DHT22;7222;57.346;12.150;2023-07-24T04:50:41;17.40;99.90
14277;DHT22;7222;57.346;12.150;2023-07-24T04:53:09;17.50;99.90
14277;DHT22;7222;57.346;12.150;2023-07-24T04:55:36;17.40;99.90
14277;DHT22;7222;57.346;12.150;2023-07-24T04:58:03;17.40;99.90
14277;DHT22;7222;57.346;12.150;2023-07-24T05:00:31;17.50;99.90
14277;DHT22;7222;57.346;12.150;2023-07-24T05:02:58;17.40;99.90
14277;DHT22;7222;57.346;12.150;2023-07-24T05:05:25;17.40;99.90
14277;DHT22;7222;57.346;12.150;2023-07-24T05:07:53;17.40;99.90
14277;DHT22;7222;57.346;12.150;2023-07-24T05:10:20;17.40;99.90
14277;DHT22;7222;57.346;12.150;2023-07-24T05:12:47;17.40;99.90
14277;DHT22;7222;57.346;12.150;2023-07-24T05:15:15;17.40;99.90
14277;DHT22;7222;57.346;12.150;2023-07-24T05:17:43;17.50;99.90
14277;DHT22;7222;57.346;12.150;2023-07-24T05:20:11;17.50;99.90
14277;DHT22;7222;57.346;12.150;2023-07-24T05:22:38;17.50;99.90
14277;DHT22;7222;57.346;12.150;2023-07-24T05:25:08;17.50;99.90
14277;DHT22;7222;57.346;12.150;2023-07-24T05:27:35;17.50;99.90
14277;DHT22;7222;57.346;12.150;2023-07-24T05:30:04;17.50;99.90
14277;DHT22;7222;57.346;12.150;2023-07-24T05:32:31;17.50;99.90
14277;DHT22;7222;57.346;12.150;2023-07-24T05:34:58;17.50;99.90
14277;DHT22;7222;57.346;12.150;2023-07-24T05:37:25;17.50;99.90
14277;DHT22;7222;57.346;12.150;2023-07-24T05:39:52;17.50;99.90
14277;DHT22;7222;57.346;12.150;2023-07-24T05:42:22;17.60;99.90
14277;DHT22;7222;57.346;12.150;2023-07-24T05:44:49;17.50;99.90
14277;DHT22;7222;57.346;12.150;2023-07-24T05:47:16;17.60;99.90
14277;DHT22;7222;57.346;12.150;2023-07-24T05:49:43;17.70;99.90
14277;DHT22;7222;57.346;12.150;2023-07-24T05:52:10;17.70;99.90
14277;DHT22;7222;57.346;12.150;2023-07-24T05:54:37;17.80;99.90
14277;DHT22;7222;57.346;12.150;2023-07-24T05:57:04;17.70;99.90
14277;DHT22;7222;57.346;12.150;2023-07-24T05:59:33;17.90;99.90
14277;DHT22;7222;57.346;12.150;2023-07-24T06:02:00;17.80;99.90
14277;DHT22;7222;57.346;12.150;2023-07-24T06:04:27;17.90;99.90
14277;DHT22;7222;57.346;12.150;2023-07-24T06:06:54;18.00;99.90
14277;DHT22;7222;57.346;12.150;2023-07-24T06:09:22;18.10;99.90
14277;DHT22;7222;57.346;12.150;2023-07-24T06:11:49;18.10;99.90
14277;DHT22;7222;57.346;12.150;2023-07-24T06:14:16;18.10;99.90
14277;DHT22;7222;57.346;12.150;2023-07-24T06:16:44;18.10;99.90
14277;DHT22;7222;57.346;12.150;2023-07-24T06:19:11;18.10;99.90
14277;DHT22;7222;57.346;12.150;2023-07-24T06:21:38;18.00;99.90
14277;DHT22;7222;57.346;12.150;2023-07-24T06:24:06;18.00;99.90
14277;DHT22;7222;57.346;12.150;2023-07-24T06:26:37;17.90;99.90
14277;DHT22;7222;57.346;12.150;2023-07-24T06:29:05;17.90;99.90
14277;DHT22;7222;57.346;12.150;2023-07-24T06:31:32;18.00;99.90
14277;DHT22;7222;57.346;12.150;2023-07-24T06:34:00;17.90;99.90
14277;DHT22;7222;57.346;12.150;2023-07-24T06:36:28;17.80;99.90
14277;DHT22;7222;57.346;12.150;2023-07-24T06:38:54;17.80;99.90
14277;DHT22;7222;57.346;12.150;2023-07-24T06:41:22;17.90;99.90
14277;DHT22;7222;57.346;12.150;2023-07-24T06:43:49;17.90;99.90
14277;DHT22;7222;57.346;12.150;2023-07-24T06:46:16;17.90;99.90
14277;DHT22;7222;57.346;12.150;2023-07-24T06:48:43;17.80;99.90
14277;DHT22;7222;57.346;12.150;2023-07-24T06:51:11;17.80;99.90
14277;DHT22;7222;57.346;12.150;2023-07-24T06:53:38;17.70;99.90
14277;DHT22;7222;57.346;12.150;2023-07-24T06:56:06;17.60;99.90
14277;DHT22;7222;57.346;12.150;2023-07-24T06:58:33;17.50;99.90
14277;DHT22;7222;57.346;12.150;2023-07-24T07:01:00;17.40;99.90
14277;DHT22;7222;57.346;12.150;2023-07-24T07:03:27;17.40;99.90
14277;DHT22;7222;57.346;12.150;2023-07-24T07:05:59;17.40;99.90
14277;DHT22;7222;57.346;12.150;2023-07-24T07:08:27;17.30;99.90
14277;DHT22;7222;57.346;12.150;2023-07-24T07:10:56;17.20;99.90
14277;DHT22;7222;57.346;12.150;2023-07-24T07:13:23;17.10;99.90
14277;DHT22;7222;57.346;12.150;2023-07-24T07:15:50;17.10;99.90
14277;DHT22;7222;57.346;12.150;2023-07-24T07:18:19;17.20;99.90
14277;DHT22;7222;57.346;12.150;2023-07-24T07:20:46;17.20;99.90
14277;DHT22;7222;57.346;12.150;2023-07-24T07:23:13;17.20;99.90
14277;DHT22;7222;57.346;12.150;2023-07-24T07:25:43;17.20;99.90
14277;DHT22;7222;57.346;12.150;2023-07-24T07:28:11;17.20;99.90
14277;DHT22;7222;57.346;12.150;2023-07-24T07:30:38;17.10;99.90
14277;DHT22;7222;57.346;12.150;2023-07-24T07:33:05;17.10;99.90
14277;DHT22;7222;57.346;12.150;2023-07-24T07:35:32;17.10;99.90
14277;DHT22;7222;57.346;12.150;2023-07-24T07:38:00;17.20;99.90
14277;DHT22;7222;57.346;12.150;2023-07-24T07:40:27;17.20;99.90
14277;DHT22;7222;57.346;12.150;2023-07-24T07:42:56;17.40;99.90
14277;DHT22;7222;57.346;12.150;2023-07-24T07:45:24;17.40;99.90
14277;DHT22;7222;57.346;12.150;2023-07-24T07:47:51;17.50;99.90
14277;DHT22;7222;57.346;12.150;2023-07-24T07:50:18;17.60;99.90
14277;DHT22;7222;57.346;12.150;2023-07-24T07:52:49;17.60;99.90
14277;DHT22;7222;57.346;12.150;2023-07-24T07:55:16;17.70;99.90
14277;DHT22;7222;57.346;12.150;2023-07-24T07:57:44;17.70;99.90
14277;DHT22;7222;57.346;12.150;2023-07-24T08:00:14;17.10;99.90
14277;DHT22;7222;57.346;12.150;2023-07-24T08:02:41;17.00;99.90
14277;DHT22;7222;57.346;12.150;2023-07-24T08:05:08;17.10;99.90
14277;DHT22;7222;57.346;12.150;2023-07-24T08:07:35;17.10;99.90
14277;DHT22;7222;57.346;12.150;2023-07-24T08:10:04;17.10;99.90
14277;DHT22;7222;57.346;12.150;2023-07-24T08:12:32;16.90;99.90
14277;DHT22;7222;57.346;12.150;2023-07-24T08:15:00;17.00;99.90
14277;DHT22;7222;57.346;12.150;2023-07-24T08:17:30;17.00;99.90
14277;DHT22;7222;57.346;12.150;2023-07-24T08:19:56;17.00;99.90
14277;DHT22;7222;57.346;12.150;2023-07-24T08:22:23;17.10;99.90
14277;DHT22;7222;57.346;12.150;2023-07-24T08:24:55;17.20;99.90
14277;DHT22;7222;57.346;12.150;2023-07-24T08:27:24;17.30;99.90
14277;DHT22;7222;57.346;12.150;2023-07-24T08:29:51;17.20;99.90
14277;DHT22;7222;57.346;12.150;2023-07-24T08:32:19;17.20;99.90
14277;DHT22;7222;57.346;12.150;2023-07-24T08:34:48;17.30;99.90
14277;DHT22;7222;57.346;12.150;2023-07-24T08:37:15;17.40;99.90
14277;DHT22;7222;57.346;12.150;2023-07-24T08:39:42;17.40;99.90
14277;DHT22;7222;57.346;12.150;2023-07-24T08:42:10;17.40;99.90
14277;DHT22;7222;57.346;12.150;2023-07-24T08:44:42;17.30;99.90
14277;DHT22;7222;57.346;12.150;2023-07-24T08:47:10;17.40;99.90
14277;DHT22;7222;57.346;12.150;2023-07-24T08:49:39;17.40;99.90
14277;DHT22;7222;57.346;12.150;2023-07-24T08:52:08;17.50;99.90
14277;DHT22;7222;57.346;12.150;2023-07-24T08:54:36;17.50;99.90
14277;DHT22;7222;57.346;12.150;2023-07-24T08:57:06;17.60;99.90
14277;DHT22;7222;57.346;12.150;2023-07-24T08:59:34;17.80;99.90
14277;DHT22;7222;57.346;12.150;2023-07-24T09:02:01;17.90;99.90
14277;DHT22;7222;57.346;12.150;2023-07-24T09:04:28;18.00;99.90
14277;DHT22;7222;57.346;12.150;2023-07-24T09:06:57;18.10;99.90
14277;DHT22;7222;57.346;12.150;2023-07-24T09:09:29;18.20;99.90
14277;DHT22;7222;57.346;12.150;2023-07-24T09:11:58;18.40;99.90
14277;DHT22;7222;57.346;12.150;2023-07-24T09:14:26;18.50;99.90
14277;DHT22;7222;57.346;12.150;2023-07-24T09:17:04;18.20;99.90
14277;DHT22;7222;57.346;12.150;2023-07-24T09:19:32;18.10;99.90
14277;DHT22;7222;57.346;12.150;2023-07-24T09:22:09;18.10;99.90
14277;DHT22;7222;57.346;12.150;2023-07-24T09:24:48;17.90;99.90
14277;DHT22;7222;57.346;12.150;2023-07-24T09:27:15;17.50;99.90
14277;DHT22;7222;57.346;12.150;2023-07-24T09:29:48;17.30;99.90
14277;DHT22;7222;57.346;12.150;2023-07-24T09:32:19;17.40;99.90
14277;DHT22;7222;57.346;12.150;2023-07-24T09:34:47;17.30;99.90
14277;DHT22;7222;57.346;12.150;2023-07-24T09:37:23;17.30;99.90
14277;DHT22;7222;57.346;12.150;2023-07-24T09:39:53;17.40;99.90
14277;DHT22;7222;57.346;12.150;2023-07-24T09:42:28;17.30;99.90
14277;DHT22;7222;57.346;12.150;2023-07-24T09:44:55;17.20;99.90
14277;DHT22;7222;57.346;12.150;2023-07-24T09:47:23;17.10;99.90
14277;DHT22;7222;57.346;12.150;2023-07-24T09:49:51;17.20;99.90
14277;DHT22;7222;57.346;12.150;2023-07-24T09:52:20;17.30;99.90
14277;DHT22;7222;57.346;12.150;2023-07-24T09:54:58;17.40;99.90
14277;DHT22;7222;57.346;12.150;2023-07-24T09:57:26;17.40;99.90
14277;DHT22;7222;57.346;12.150;2023-07-24T09:59:56;17.40;99.90
14277;DHT22;7222;57.346;12.150;2023-07-24T10:02:24;17.40;99.90
14277;DHT22;7222;57.346;12.150;2023-07-24T10:04:52;17.40;99.90
14277;DHT22;7222;57.346;12.150;2023-07-24T10:07:20;17.70;99.90
14277;DHT22;7222;57.346;12.150;2023-07-24T10:09:49;17.70;99.90
14277;DHT22;7222;57.346;12.150;2023-07-24T10:12:18;17.70;99.90
14277;DHT22;7222;57.346;12.150;2023-07-24T10:14:46;17.90;99.90
14277;DHT22;7222;57.346;12.150;2023-07-24T10:17:14;18.00;99.90
14277;DHT22;7222;57.346;12.150;2023-07-24T10:19:41;18.20;99.90
14277;DHT22;7222;57.346;12.150;2023-07-24T10:22:16;18.20;99.90
14277;DHT22;7222;57.346;12.150;2023-07-24T10:24:44;18.30;99.90
14277;DHT22;7222;57.346;12.150;2023-07-24T10:27:11;18.20;99.90
14277;DHT22;7222;57.346;12.150;2023-07-24T10:29:40;18.30;99.90
14277;DHT22;7222;57.346;12.150;2023-07-24T10:32:17;18.00;99.90
14277;DHT22;7222;57.346;12.150;2023-07-24T10:34:44;18.00;99.90
14277;DHT22;7222;57.346;12.150;2023-07-24T10:37:12;18.10;99.90
14277;DHT22;7222;57.346;12.150;2023-07-24T10:39:39;18.10;99.90
14277;DHT22;7222;57.346;12.150;2023-07-24T10:42:08;18.10;99.90
14277;DHT22;7222;57.346;12.150;2023-07-24T10:44:37;18.00;99.90
14277;DHT22;7222;57.346;12.150;2023-07-24T10:47:05;18.10;99.90
14277;DHT22;7222;57.346;12.150;2023-07-24T10:49:47;18.40;99.90
14277;DHT22;7222;57.346;12.150;2023-07-24T10:52:15;18.70;99.90
14277;DHT22;7222;57.346;12.150;2023-07-24T10:54:42;18.80;99.90
14277;DHT22;7222;57.346;12.150;2023-07-24T10:57:09;18.80;99.90
14277;DHT22;7222;57.346;12.150;2023-07-24T10:59:37;19.10;99.90
14277;DHT22;7222;57.346;12.150;2023-07-24T11:02:07;19.30;99.90
14277;DHT22;7222;57.346;12.150;2023-07-24T11:04:35;19.10;99.90
14277;DHT22;7222;57.346;12.150;2023-07-24T11:07:03;19.10;99.90
14277;DHT22;7222;57.346;12.150;2023-07-24T11:09:36;18.80;99.90
14277;DHT22;7222;57.346;12.150;2023-07-24T11:12:13;19.00;99.90
14277;DHT22;7222;57.346;12.150;2023-07-24T11:14:48;19.00;99.90
14277;DHT22;7222;57.346;12.150;2023-07-24T11:17:16;19.00;99.90
14277;DHT22;7222;57.346;12.150;2023-07-24T11:19:43;18.70;99.90
14277;DHT22;7222;57.346;12.150;2023-07-24T11:22:11;18.80;99.90
14277;DHT22;7222;57.346;12.150;2023-07-24T11:24:46;18.90;99.90
14277;DHT22;7222;57.346;12.150;2023-07-24T11:27:14;18.50;99.90
14277;DHT22;7222;57.346;12.150;2023-07-24T11:29:47;18.30;99.90
14277;DHT22;7222;57.346;12.150;2023-07-24T11:32:18;17.80;99.90
14277;DHT22;7222;57.346;12.150;2023-07-24T11:34:47;17.60;99.90
14277;DHT22;7222;57.346;12.150;2023-07-24T11:37:16;17.60;99.90
14277;DHT22;7222;57.346;12.150;2023-07-24T11:39:44;17.80;99.90
14277;DHT22;7222;57.346;12.150;2023-07-24T11:42:21;17.70;99.90
14277;DHT22;7222;57.346;12.150;2023-07-24T11:44:48;17.40;99.90
14277;DHT22;7222;57.346;12.150;2023-07-24T11:47:15;17.10;99.90
14277;DHT22;7222;57.346;12.150;2023-07-24T11:49:56;17.20;99.90
14277;DHT22;7222;57.346;12.150;2023-07-24T11:52:23;17.10;99.90
14277;DHT22;7222;57.346;12.150;2023-07-24T11:54:56;17.30;99.90
14277;DHT22;7222;57.346;12.150;2023-07-24T11:57:27;17.20;99.90
14277;DHT22;7222;57.346;12.150;2023-07-24T12:00:00;17.10;99.90
14277;DHT22;7222;57.346;12.150;2023-07-24T12:02:27;17.00;99.90
14277;DHT22;7222;57.346;12.150;2023-07-24T12:04:57;17.20;99.90
14277;DHT22;7222;57.346;12.150;2023-07-24T12:07:33;17.10;99.90
14277;DHT22;7222;57.346;12.150;2023-07-24T12:10:00;17.40;99.90
14277;DHT22;7222;57.346;12.150;2023-07-24T12:12:43;17.50;99.90
14277;DHT22;7222;57.346;12.150;2023-07-24T12:15:10;17.60;99.90
14277;DHT22;7222;57.346;12.150;2023-07-24T12:17:38;17.60;99.90
14277;DHT22;7222;57.346;12.150;2023-07-24T12:20:08;17.70;99.90
14277;DHT22;7222;57.346;12.150;2023-07-24T12:22:38;17.80;99.90
14277;DHT22;7222;57.346;12.150;2023-07-24T12:25:05;17.70;99.90
14277;DHT22;7222;57.346;12.150;2023-07-24T12:27:32;17.80;99.90
14277;DHT22;7222;57.346;12.150;2023-07-24T12:30:00;17.80;99.90
14277;DHT22;7222;57.346;12.150;2023-07-24T12:32:28;17.80;99.90
14277;DHT22;7222;57.346;12.150;2023-07-24T12:34:55;17.80;99.90
14277;DHT22;7222;57.346;12.150;2023-07-24T12:37:24;17.70;99.90
14277;DHT22;7222;57.346;12.150;2023-07-24T12:39:51;17.80;99.90
14277;DHT22;7222;57.346;12.150;2023-07-24T12:42:18;17.70;99.90
14277;DHT22;7222;57.346;12.150;2023-07-24T12:44:45;17.40;99.90
14277;DHT22;7222;57.346;12.150;2023-07-24T12:47:13;17.40;99.90
14277;DHT22;7222;57.346;12.150;2023-07-24T12:49:40;17.40;99.90
14277;DHT22;7222;57.346;12.150;2023-07-24T12:52:07;17.50;99.90
14277;DHT22;7222;57.346;12.150;2023-07-24T12:54:36;17.60;99.90
14277;DHT22;7222;57.346;12.150;2023-07-24T12:57:05;17.50;99.90
14277;DHT22;7222;57.346;12.150;2023-07-24T12:59:32;17.40;99.90
14277;DHT22;7222;57.346;12.150;2023-07-24T13:01:59;17.50;99.90
14277;DHT22;7222;57.346;12.150;2023-07-24T13:04:26;17.60;99.90
14277;DHT22;7222;57.346;12.150;2023-07-24T13:06:53;17.70;99.90
14277;DHT22;7222;57.346;12.150;2023-07-24T13:09:20;17.70;99.90
14277;DHT22;7222;57.346;12.150;2023-07-24T13:11:51;17.80;99.90
14277;DHT22;7222;57.346;12.150;2023-07-24T13:14:19;17.80;99.90
14277;DHT22;7222;57.346;12.150;2023-07-24T13:16:47;18.40;99.90
14277;DHT22;7222;57.346;12.150;2023-07-24T13:19:15;18.80;99.90
14277;DHT22;7222;57.346;12.150;2023-07-24T13:21:43;18.90;99.90
14277;DHT22;7222;57.346;12.150;2023-07-24T13:24:12;19.00;99.90
14277;DHT22;7222;57.346;12.150;2023-07-24T13:26:39;18.60;99.90
14277;DHT22;7222;57.346;12.150;2023-07-24T13:29:08;18.50;99.90
14277;DHT22;7222;57.346;12.150;2023-07-24T13:31:35;18.20;99.90
14277;DHT22;7222;57.346;12.150;2023-07-24T13:34:02;18.50;99.90
14277;DHT22;7222;57.346;12.150;2023-07-24T13:36:30;18.40;99.90
14277;DHT22;7222;57.346;12.150;2023-07-24T13:38:57;18.40;99.90
14277;DHT22;7222;57.346;12.150;2023-07-24T13:41:24;18.50;99.90
14277;DHT22;7222;57.346;12.150;2023-07-24T13:43:51;18.60;99.90
14277;DHT22;7222;57.346;12.150;2023-07-24T13:46:20;18.50;99.90
14277;DHT22;7222;57.346;12.150;2023-07-24T13:48:48;18.40;99.90
14277;DHT22;7222;57.346;12.150;2023-07-24T13:51:15;18.60;99.90
14277;DHT22;7222;57.346;12.150;2023-07-24T13:53:42;18.60;99.90
14277;DHT22;7222;57.346;12.150;2023-07-24T13:56:11;18.60;99.90
14277;DHT22;7222;57.346;12.150;2023-07-24T13:58:39;18.60;99.90
14277;DHT22;7222;57.346;12.150;2023-07-24T14:01:07;18.80;99.90
14277;DHT22;7222;57.346;12.150;2023-07-24T14:03:35;18.60;99.90
14277;DHT22;7222;57.346;12.150;2023-07-24T14:06:02;18.60;99.90
14277;DHT22;7222;57.346;12.150;2023-07-24T14:08:30;18.70;99.90
14277;DHT22;7222;57.346;12.150;2023-07-24T14:10:58;18.60;99.90
14277;DHT22;7222;57.346;12.150;2023-07-24T14:13:25;18.50;99.90
14277;DHT22;7222;57.346;12.150;2023-07-24T14:15:52;18.40;99.90
14277;DHT22;7222;57.346;12.150;2023-07-24T14:18:20;18.40;99.90
14277;DHT22;7222;57.346;12.150;2023-07-24T14:20:48;18.50;99.90
14277;DHT22;7222;57.346;12.150;2023-07-24T14:23:16;18.60;99.90
14277;DHT22;7222;57.346;12.150;2023-07-24T14:25:45;18.50;99.90
14277;DHT22;7222;57.346;12.150;2023-07-24T14:28:12;18.50;99.90
14277;DHT22;7222;57.346;12.150;2023-07-24T14:30:39;18.60;99.90
14277;DHT22;7222;57.346;12.150;2023-07-24T14:33:06;18.60;99.90
14277;DHT22;7222;57.346;12.150;2023-07-24T14:35:33;18.60;99.90
14277;DHT22;7222;57.346;12.150;2023-07-24T14:38:02;18.80;99.90
14277;DHT22;7222;57.346;12.150;2023-07-24T14:40:29;18.90;99.90
14277;DHT22;7222;57.346;12.150;2023-07-24T14:42:56;18.90;99.90
14277;DHT22;7222;57.346;12.150;2023-07-24T14:45:23;19.00;99.90
14277;DHT22;7222;57.346;12.150;2023-07-24T14:47:51;18.90;99.90
14277;DHT22;7222;57.346;12.150;2023-07-24T14:50:18;19.00;99.90
14277;DHT22;7222;57.346;12.150;2023-07-24T14:52:45;19.10;99.90
14277;DHT22;7222;57.346;12.150;2023-07-24T14:55:14;19.20;99.90
14277;DHT22;7222;57.346;12.150;2023-07-24T14:57:41;19.20;99.90
14277;DHT22;7222;57.346;12.150;2023-07-24T15:00:09;19.00;99.90
14277;DHT22;7222;57.346;12.150;2023-07-24T15:02:36;18.90;99.90
14277;DHT22;7222;57.346;12.150;2023-07-24T15:05:04;18.80;99.90
14277;DHT22;7222;57.346;12.150;2023-07-24T15:07:32;18.80;99.90
14277;DHT22;7222;57.346;12.150;2023-07-24T15:09:58;18.80;99.90
14277;DHT22;7222;57.346;12.150;2023-07-24T15:12:27;18.70;99.90
14277;DHT22;7222;57.346;12.150;2023-07-24T15:14:54;18.50;99.90
14277;DHT22;7222;57.346;12.150;2023-07-24T15:17:21;18.50;99.90
14277;DHT22;7222;57.346;12.150;2023-07-24T15:19:48;18.40;99.90
14277;DHT22;7222;57.346;12.150;2023-07-24T15:22:15;18.40;99.90
14277;DHT22;7222;57.346;12.150;2023-07-24T15:24:43;18.50;99.90
14277;DHT22;7222;57.346;12.150;2023-07-24T15:27:10;18.40;99.90
14277;DHT22;7222;57.346;12.150;2023-07-24T15:29:38;18.40;99.90
14277;DHT22;7222;57.346;12.150;2023-07-24T15:32:06;18.40;99.90
14277;DHT22;7222;57.346;12.150;2023-07-24T15:34:33;18.50;99.90
14277;DHT22;7222;57.346;12.150;2023-07-24T15:37:00;18.50;99.90
14277;DHT22;7222;57.346;12.150;2023-07-24T15:39:27;18.50;99.90